Latest Weather Observations for Amberley

IDQ60801

Issued at 10:02 am EST Sunday 25 September 2016 (issued every 30 minutes, with the page automatically refreshed every 10 minutes)

About weather observations | Map of weather stations | Latest weather observations for QLD | Other Formats
Station Details ID: 040004 Name: AMBERLEY AMO Lat: -27.63 Lon: 152.71 Height: 24.2 m
Data from the previous 72 hours. | See also: Recent months at Amberley
Date/Time
EST
Temp
°C
App
Temp
°C
Dew
Point
°C
Rel
Hum
%
Delta-T
°C
Wind Press
QNH
hPa
Press
MSL
hPa
Rain since
9am
mm
Dir  Spd
km/h
Gust
km/h
Spd
kts
Gust
kts
25/10:00am 22.2 20.3 11.7 51 5.9 NNW 13 15 7 8 1008.5 1008.4 0.0
25/09:30am 19.6 17.3 11.9 61 4.3 NNW 15 19 8 10 1009.1 1009.0 0.0
25/09:00am 17.2 16.3 12.5 74 2.6 NNW 9 11 5 6 1009.2 1009.1 0.0
25/08:30am 15.6 14.9 11.9 78 2.0 NNW 7 11 4 6 1009.5 1009.4 0.0
25/08:00am 14.4 13.7 11.4 82 1.6 W 6 9 3 5 1009.9 1009.8 0.0
25/07:30am 13.2 12.5 11.9 92 0.7 SW 7 9 4 5 1009.8 1009.7 0.0
25/07:00am 12.7 13.3 11.8 94 0.5 CALM 0 6 0 3 1010.1 1010.0 0.0
25/06:30am 12.0 12.4 11.2 95 0.4 CALM 0 0 0 0 1010.0 1009.9 0.0
25/06:00am 11.3 11.5 10.5 95 0.4 CALM 0 0 0 0 1009.6 1009.5 0.0
25/05:30am 10.3 10.3 9.7 96 0.3 CALM 0 0 0 0 1009.6 1009.5 0.0
25/05:00am 10.4 10.4 9.8 96 0.3 CALM 0 0 0 0 1009.3 1009.2 0.0
25/04:30am 10.3 10.3 9.7 96 0.3 CALM 0 0 0 0 1008.8 1008.7 0.0
25/04:00am 10.8 10.8 9.8 93 0.5 CALM 0 0 0 0 1008.8 1008.7 0.0
25/03:30am 10.7 10.7 9.9 95 0.4 CALM 0 0 0 0 1008.4 1008.3 0.0
25/03:00am 11.4 11.5 10.2 92 0.6 CALM 0 0 0 0 1008.6 1008.5 0.0
25/02:30am 10.8 10.8 9.8 93 0.5 CALM 0 0 0 0 1008.9 1008.8 0.0
25/02:00am 12.1 12.3 10.6 90 0.8 CALM 0 0 0 0 1008.8 1008.7 0.0
25/01:30am 12.0 12.2 10.7 92 0.7 CALM 0 0 0 0 1009.2 1009.1 0.0
25/01:00am 12.3 12.6 10.8 90 0.8 CALM 0 0 0 0 1009.3 1009.2 0.0
25/12:30am 12.0 12.3 10.8 92 0.6 CALM 0 0 0 0 1009.4 1009.3 0.0
25/12:00am 12.4 12.8 11.3 93 0.6 CALM 0 0 0 0 1009.5 1009.4 0.0
 
Date/Time
EST
Temp
°C
App
Temp
°C
Dew
Point
°C
Rel
Hum
%
Delta-T
°C
Wind Press
QNH
hPa
Press
MSL
hPa
Rain since
9am
mm
Dir  Spd
km/h
Gust
km/h
Spd
kts
Gust
kts
24/11:30pm 12.5 11.7 11.6 94 0.5 W 7 7 4 4 1009.5 1009.4 0.0
24/11:00pm 13.8 13.6 11.8 88 1.1 SSW 4 7 2 4 1009.5 1009.4 0.0
24/10:30pm 15.1 14.5 11.8 81 1.8 ENE 6 7 3 4 1009.7 1009.6 0.0
24/10:00pm 16.7 15.3 12.2 75 2.5 ENE 11 13 6 7 1009.8 1009.7 0.0
24/09:30pm 17.2 15.8 12.3 73 2.7 E 11 15 6 8 1009.9 1009.8 0.0
24/09:00pm 17.8 16.1 12.6 71 2.9 E 13 17 7 9 1009.7 1009.6 0.0
24/08:30pm 18.6 15.8 12.5 67 3.4 E 19 24 10 13 1009.8 1009.7 0.0
24/08:00pm 19.1 16.1 12.7 66 3.6 ENE 20 26 11 14 1009.9 1009.8 0.0
24/07:30pm 19.6 16.6 12.1 62 4.2 ENE 19 26 10 14 1009.9 1009.8 0.0
24/07:00pm 20.2 16.4 11.3 56 4.9 ENE 22 28 12 15 1009.4 1009.3 0.0
24/06:30pm 22.1 19.0 7.2 38 7.7 WSW 13 17 7 9 1008.8 1008.7 0.0
24/06:00pm 22.7 19.9 6.8 35 8.2 W 11 13 6 7 1008.7 1008.6 0.0
24/05:30pm 24.2 20.0 5.5 30 9.5 W 17 22 9 12 1008.3 1008.2 0.0
24/05:00pm 25.8 23.2 9.2 35 9.1 NW 13 15 7 8 1007.8 1007.7 0.0
24/04:30pm 26.0 24.3 9.7 35 9.0 NW 9 13 5 7 1007.3 1007.2 0.0
24/04:00pm 26.1 23.1 9.1 34 9.3 NNE 15 19 8 10 1007.3 1007.2 0.0
24/03:30pm 26.5 24.9 7.9 30 10.0 NE 6 13 3 7 1007.3 1007.2 0.0
24/03:00pm 25.9 24.0 7.5 31 9.8 WNW 7 13 4 7 1007.5 1007.4 0.0
24/02:30pm 25.5 23.7 7.1 31 9.7 E 6 11 3 6 1007.9 1007.8 0.0
24/02:00pm 25.5 23.1 7.1 31 9.7 NW 9 15 5 8 1008.3 1008.2 0.0
24/01:30pm 25.4 22.4 6.1 29 10.0 WSW 11 19 6 10 1008.8 1008.7 0.0
24/01:00pm 24.7 22.7 8.5 35 8.7 W 9 15 5 8 1009.3 1009.2 0.0
24/12:30pm 24.2 22.4 8.0 35 8.6 NW 7 17 4 9 1009.7 1009.6 0.0
24/12:00pm 23.8 21.5 9.0 39 8.0 NNW 11 17 6 9 1010.3 1010.2 0.0
24/11:30am 23.5 21.6 10.5 43 7.2 NNW 11 20 6 11 1010.9 1010.8 0.0
24/11:00am 23.0 21.9 10.5 45 6.9 WSW 7 9 4 5 1011.3 1011.2 0.0
24/10:30am 22.1 21.2 10.6 48 6.3 NNW 6 11 3 6 1012.0 1011.9 0.0
24/10:00am 21.4 20.3 10.6 50 5.9 WSW 7 13 4 7 1012.4 1012.3 0.0
24/09:30am 20.9 19.7 10.4 51 5.7 WNW 7 17 4 9 1012.8 1012.7 0.0
24/09:00am 19.6 18.0 10.1 54 5.1 WNW 9 15 5 8 1013.0 1012.9 0.0
24/08:30am 18.5 16.5 10.1 58 4.5 WNW 11 17 6 9 1013.1 1013.0 0.0
24/08:00am 16.9 15.8 10.7 67 3.3 NW 7 11 4 6 1013.2 1013.1 0.0
24/07:30am 14.7 13.8 10.5 76 2.2 WNW 6 9 3 5 1013.1 1013.0 0.0
24/07:00am 12.7 13.0 11.0 89 0.9 CALM 0 6 0 3 1012.9 1012.8 0.0
24/06:30am 10.3 10.2 9.3 93 0.5 CALM 0 0 0 0 1012.7 1012.6 0.0
24/06:00am 8.0 7.4 7.4 96 0.3 CALM 0 0 0 0 1012.4 1012.3 0.0
24/05:30am 8.6 8.1 8.0 96 0.3 CALM 0 0 0 0 1012.0 1011.9 0.0
24/05:00am 8.6 6.8 7.8 95 0.4 SSW 7 9 4 5 1011.6 1011.5 0.0
24/04:30am 9.2 7.7 8.4 95 0.4 SSW 6 7 3 4 1011.0 1010.9 0.0
24/04:00am 9.3 9.0 8.7 96 0.3 CALM 0 0 0 0 1010.6 1010.5 0.0
24/03:30am 9.4 9.0 8.4 93 0.5 CALM 0 0 0 0 1010.5 1010.4 0.0
24/03:00am 9.9 9.7 8.9 93 0.5 CALM 0 0 0 0 1010.5 1010.4 0.0
24/02:30am 10.7 10.5 9.1 90 0.8 CALM 0 0 0 0 1010.7 1010.6 0.0
24/02:00am 11.0 10.8 9.0 87 1.0 CALM 0 0 0 0 1011.0 1010.9 0.0
24/01:30am 11.0 10.0 9.0 87 1.0 S 4 7 2 4 1011.2 1011.1 0.0
24/01:00am 12.7 12.6 9.4 80 1.7 CALM 0 0 0 0 1011.1 1011.0 0.0
24/12:30am 13.2 11.7 9.1 76 2.1 NNW 7 9 4 5 1011.0 1010.9 0.0
24/12:00am 12.5 10.2 9.1 80 1.7 NNW 11 13 6 7 1011.1 1011.0 0.0
 
Date/Time
EST
Temp
°C
App
Temp
°C
Dew
Point
°C
Rel
Hum
%
Delta-T
°C
Wind Press
QNH
hPa
Press
MSL
hPa
Rain since
9am
mm
Dir  Spd
km/h
Gust
km/h
Spd
kts
Gust
kts
23/11:30pm 13.6 11.0 9.3 75 2.2 NW 13 13 7 7 1011.1 1011.0 0.0
23/11:00pm 13.9 13.7 9.2 73 2.4 CALM 0 0 0 0 1011.3 1011.2 0.0
23/10:30pm 14.0 13.5 9.3 73 2.4 N 2 9 1 5 1011.5 1011.4 0.0
23/10:00pm 14.0 12.2 9.5 74 2.3 NW 9 11 5 6 1011.4 1011.3 0.0
23/09:30pm 14.8 13.4 9.4 70 2.8 NW 7 9 4 5 1011.4 1011.3 0.0
23/09:00pm 16.1 15.5 8.9 62 3.7 NNW 2 7 1 4 1011.5 1011.4 0.0
23/08:30pm 16.3 14.9 8.9 61 3.8 N 6 9 3 5 1011.3 1011.2 0.0
23/08:00pm 15.9 13.8 9.6 66 3.3 NW 11 13 6 7 1011.1 1011.0 0.0
23/07:30pm 16.4 13.8 9.5 63 3.6 NW 13 17 7 9 1010.8 1010.7 0.0
23/07:00pm 18.3 15.6 8.9 54 4.9 WNW 13 17 7 9 1010.3 1010.2 0.0
23/06:30pm 17.9 15.3 9.5 58 4.4 NW 13 15 7 8 1009.8 1009.7 0.0
23/06:00pm 19.8 16.7 8.8 49 5.8 WNW 15 22 8 12 1009.5 1009.4 0.0
23/05:30pm 21.6 17.9 8.0 41 7.1 WNW 17 22 9 12 1009.1 1009.0 0.0
23/05:00pm 22.8 18.0 7.5 37 8.0 W 22 32 12 17 1008.6 1008.5 0.0
23/04:30pm 23.6 18.5 7.6 35 8.4 WNW 24 33 13 18 1008.3 1008.2 0.0
23/04:00pm 23.9 18.6 7.0 33 8.8 WNW 24 37 13 20 1008.2 1008.1 0.0
23/03:30pm 24.5 19.0 7.7 34 8.9 WNW 26 35 14 19 1008.2 1008.1 0.0
23/03:00pm 24.4 18.8 7.3 33 9.0 WNW 26 35 14 19 1008.2 1008.1 0.0
23/02:30pm 24.1 19.6 6.8 33 9.0 W 20 30 11 16 1008.5 1008.4 0.0
23/02:00pm 24.3 19.8 6.8 32 9.1 W 20 30 11 16 1008.7 1008.6 0.0
23/01:30pm 24.3 20.1 7.4 34 8.9 WNW 19 28 10 15 1008.8 1008.7 0.0
23/01:00pm 23.9 19.3 6.5 32 9.0 WNW 20 33 11 18 1009.2 1009.1 0.0
23/12:30pm 23.1 19.8 6.3 33 8.6 WNW 13 26 7 14 1009.7 1009.6 0.0
23/12:00pm 23.1 18.8 6.8 35 8.4 W 19 35 10 19 1010.1 1010.0 0.0
23/11:30am 23.5 19.4 6.4 33 8.8 WNW 17 28 9 15 1010.5 1010.4 0.0
23/11:00am 22.7 18.5 5.6 33 8.6 WNW 17 28 9 15 1010.8 1010.7 0.0
23/10:30am 22.3 18.8 5.3 33 8.5 W 13 22 7 12 1011.2 1011.1 0.0
23/10:00am 21.7 17.6 4.6 32 8.4 WNW 15 26 8 14 1011.5 1011.4 0.0
23/09:30am 20.6 17.0 4.9 35 7.7 WNW 13 20 7 11 1011.8 1011.7 0.0
23/09:00am 19.4 15.9 5.3 39 6.9 W 13 33 7 18 1012.1 1012.0 0.0
23/08:30am 18.7 14.4 5.4 41 6.5 W 17 24 9 13 1012.3 1012.2 0.0
23/08:00am 17.2 14.0 7.0 51 5.1 WNW 13 17 7 9 1012.1 1012.0 0.0
23/07:30am 15.3 12.7 9.3 67 3.1 NNW 13 15 7 8 1011.9 1011.8 0.0
23/07:00am 13.9 11.3 9.4 74 2.3 NW 13 17 7 9 1011.7 1011.6 0.0
23/06:30am 12.3 9.7 9.5 83 1.4 NW 13 15 7 8 1011.6 1011.5 0.0
23/06:00am 9.6 6.9 7.5 87 1.0 NW 11 11 6 6 1011.4 1011.3 0.0
23/05:30am 10.1 6.4 7.8 86 1.1 NW 17 19 9 10 1011.2 1011.1 0.0
23/05:00am 8.9 5.8 7.2 89 0.8 NNW 13 15 7 8 1010.9 1010.8 0.0
23/04:30am 10.6 8.1 8.1 84 1.2 NW 11 13 6 7 1010.9 1010.8 0.0
23/04:00am 10.2 9.0 8.1 87 1.0 NNE 4 9 2 5 1010.8 1010.7 0.0
23/03:30am 11.2 9.1 8.1 81 1.5 W 9 9 5 5 1010.7 1010.6 0.0
23/03:00am 10.6 9.0 7.9 83 1.3 NNW 6 9 3 5 1010.6 1010.5 0.0
23/02:30am 11.5 9.8 8.5 82 1.5 WNW 7 11 4 6 1010.9 1010.8 0.0
23/02:00am 11.7 8.1 8.5 81 1.6 WNW 17 19 9 10 1011.2 1011.1 0.0
23/01:30am 12.4 10.0 8.6 77 1.9 NW 11 15 6 8 1011.3 1011.2 0.0
23/01:00am 11.2 8.8 8.8 85 1.2 NNW 11 13 6 7 1011.6 1011.5 0.0
23/12:30am 11.2 9.2 8.8 85 1.2 NNW 9 13 5 7 1011.8 1011.7 0.0
23/12:00am 13.4 11.9 8.4 72 2.5 NNE 6 9 3 5 1012.1 1012.0 0.0
 
Date/Time
EST
Temp
°C
App
Temp
°C
Dew
Point
°C
Rel
Hum
%
Delta-T
°C
Wind Press
QNH
hPa
Press
MSL
hPa
Rain since
9am
mm
Dir  Spd
km/h
Gust
km/h
Spd
kts
Gust
kts
22/11:30pm 13.9 11.4 8.3 69 2.8 NNE 11 13 6 7 1012.2 1012.1 0.0
22/11:00pm 12.8 11.4 8.8 76 2.0 NNE 6 9 3 5 1012.1 1012.0 0.0
22/10:30pm 15.6 14.9 8.5 62 3.6 SSE 2 7 1 4 1012.3 1012.2 0.0
22/10:00pm 16.0 12.8 8.5 61 3.8 W 15 19 8 10 1012.4 1012.3 0.0
22/09:30pm 15.6 12.8 8.5 62 3.6 W 13 17 7 9 1012.5 1012.4 0.0
22/09:00pm 15.6 12.2 7.8 59 3.9 W 15 17 8 9 1012.5 1012.4 0.0
22/08:30pm 16.7 13.3 7.5 54 4.6 W 15 19 8 10 1012.4 1012.3 0.0
22/08:00pm 17.3 13.8 7.3 52 5.0 W 15 22 8 12 1012.3 1012.2 0.0
22/07:30pm 17.9 14.1 7.6 51 5.2 W 17 22 9 12 1012.0 1011.9 0.0
22/07:00pm 18.3 14.9 7.7 50 5.4 W 15 19 8 10 1011.6 1011.5 0.0
22/06:30pm 19.2 15.8 7.7 47 5.9 WSW 15 20 8 11 1011.3 1011.2 0.0
22/06:00pm 20.3 16.4 7.2 42 6.7 WSW 17 30 9 16 1010.9 1010.8 0.0
22/05:30pm 20.8 16.3 6.3 39 7.3 WSW 19 26 10 14 1010.3 1010.2 0.0
22/05:00pm 21.7 17.4 6.9 38 7.6 WSW 19 24 10 13 1009.8 1009.7 0.0
22/04:30pm 22.2 17.7 6.3 35 8.1 WSW 19 26 10 14 1009.4 1009.3 0.0
22/04:00pm 22.1 16.6 6.1 35 8.1 SW 24 32 13 17 1009.0 1008.9 0.0
22/03:30pm 21.9 16.1 6.1 36 8.0 WSW 26 46 14 25 1008.8 1008.7 0.0
22/03:00pm 22.0 16.6 6.2 36 8.0 WSW 24 33 13 18 1008.8 1008.7 0.0
22/02:30pm 23.2 18.0 7.3 36 8.3 WSW 24 33 13 18 1008.8 1008.7 0.0
22/02:00pm 23.2 16.3 6.5 34 8.6 WNW 32 41 17 22 1009.0 1008.9 0.0
22/01:30pm 24.3 18.9 7.9 35 8.7 WSW 26 37 14 20 1009.3 1009.2 0.0
22/01:00pm 23.8 18.8 7.9 36 8.4 WSW 24 35 13 19 1009.5 1009.4 0.0
22/12:30pm 23.5 17.6 7.7 36 8.3 WNW 28 41 15 22 1009.9 1009.8 0.0
22/12:00pm 22.3 15.2 6.4 35 8.1 W 33 46 18 25 1010.2 1010.1 0.0
22/11:30am 22.8 16.2 7.7 38 7.9 WSW 32 44 17 24 1010.6 1010.5 0.0
22/11:00am 21.8 15.0 6.7 37 7.7 W 32 43 17 23 1011.3 1011.2 0.0
22/10:30am 21.2 14.5 7.2 40 7.2 W 32 43 17 23 1011.6 1011.5 0.0

Other Formats:

Comma delimited format used in spreadsheet applications
http://www.bom.gov.au/fwo/IDQ60801/IDQ60801.94568.axf

JavaScript Object Notation format (JSON) in row-major order
http://www.bom.gov.au/fwo/IDQ60801/IDQ60801.94568.json